Terminal Aerodrome Forecast
Issued by NWS Cleveland, OH

Home | Current Version | Previous Version | Text Only | Print | Product List | Glossary On
Versions: 1 2 3 4 5 6 7 8 9 10 11 12 13 14 15 16 17 18 19
000
FTUS41 KCLE 271647 AAA
TAFTOL
TAF AMD
KTOL 271647Z 2717/2812 23015G25KT P6SM BKN045
      TEMPO 2717/2720 VRB25G40KT 2SM -TSRA OVC035CB
     FM272000 26012KT P6SM BKN080
     FM280100 30006KT P6SM SCT120
     FM281000 36004KT 5SM BR SKC=

USA.gov is the U.S. government's official web portal to all federal, state and local government web resources and services.